createdAt,value
2023-03-20T00:00:12.204Z,18.00
2023-03-20T00:02:45.222Z,18.70
2023-03-20T00:05:23.934Z,19.50
2023-03-20T00:08:52.232Z,20.20
2023-03-20T00:12:27.995Z,19.40
2023-03-20T00:15:46.198Z,21.70
2023-03-20T00:22:52.956Z,19.80
2023-03-20T00:26:33.452Z,21.30
2023-03-20T00:29:58.866Z,20.10
2023-03-20T00:36:33.376Z,23.00
2023-03-20T00:39:08.015Z,24.10
2023-03-20T00:41:46.123Z,23.60
2023-03-20T00:44:25.606Z,20.80
2023-03-20T00:47:01.869Z,21.90
2023-03-20T00:49:46.607Z,23.40
2023-03-20T00:53:19.864Z,21.60
2023-03-20T00:56:56.995Z,23.30
2023-03-20T01:10:42.083Z,26.90
2023-03-20T01:14:00.454Z,24.70
2023-03-20T01:17:33.832Z,21.80
2023-03-20T01:21:07.511Z,21.80
2023-03-20T01:23:40.278Z,23.30
2023-03-20T01:26:26.280Z,23.20
2023-03-20T01:28:59.060Z,22.60
2023-03-20T01:31:33.030Z,20.20
2023-03-20T01:34:06.840Z,22.60
2023-03-20T01:36:40.921Z,21.40
2023-03-20T01:40:28.100Z,20.90
2023-03-20T01:43:34.039Z,20.60
2023-03-20T01:47:16.261Z,24.30
2023-03-20T01:50:50.824Z,21.60
2023-03-20T01:53:26.682Z,21.80
2023-03-20T01:56:03.071Z,21.00
2023-03-20T01:58:49.401Z,23.30
2023-03-20T02:01:23.030Z,23.30
2023-03-20T02:06:46.276Z,20.90
2023-03-20T02:10:20.786Z,21.50
2023-03-20T02:13:57.390Z,16.40
2023-03-20T02:21:23.837Z,19.80
2023-03-20T02:24:21.105Z,20.40
2023-03-20T02:27:08.771Z,20.90
2023-03-20T02:30:24.681Z,20.10
2023-03-20T02:33:34.739Z,20.60
2023-03-20T02:36:40.379Z,19.30
2023-03-20T02:40:22.838Z,19.30
2023-03-20T02:44:06.471Z,18.00
2023-03-20T02:51:13.764Z,17.30
2023-03-20T02:53:54.788Z,17.40
2023-03-20T02:56:44.611Z,17.60
2023-03-20T02:59:28.345Z,18.90
2023-03-20T03:02:07.186Z,16.80
2023-03-20T03:04:43.363Z,16.80
2023-03-20T03:07:19.763Z,16.00
2023-03-20T03:10:57.302Z,15.80
2023-03-20T03:14:37.333Z,17.50
2023-03-20T03:35:33.413Z,15.00
2023-03-20T03:38:24.062Z,16.60
2023-03-20T03:41:13.064Z,16.30
2023-03-20T03:43:52.605Z,14.90
2023-03-20T03:46:34.653Z,16.80
2023-03-20T03:49:10.632Z,16.50
2023-03-20T03:51:50.373Z,15.30
2023-03-20T03:55:27.604Z,15.10
2023-03-20T04:02:49.713Z,17.90
2023-03-20T04:06:23.063Z,15.50
2023-03-20T04:08:58.286Z,14.60
2023-03-20T04:11:37.382Z,15.50
2023-03-20T04:14:10.057Z,13.40
2023-03-20T04:16:48.576Z,14.90
2023-03-20T04:19:21.340Z,13.80
2023-03-20T04:21:55.685Z,13.20
2023-03-20T04:24:28.854Z,13.60
2023-03-20T04:27:01.681Z,14.10
2023-03-20T04:29:37.006Z,13.80
2023-03-20T04:32:46.570Z,14.30
2023-03-20T04:35:47.127Z,15.10
2023-03-20T04:39:20.887Z,14.50
2023-03-20T04:42:54.884Z,15.60
2023-03-20T04:53:17.254Z,16.80
2023-03-20T04:55:56.327Z,17.30
2023-03-20T04:58:29.724Z,16.60
2023-03-20T05:01:02.557Z,17.50
2023-03-20T05:03:36.375Z,14.20
2023-03-20T05:06:10.329Z,17.20
2023-03-20T05:08:46.833Z,17.30
2023-03-20T05:11:19.526Z,17.70
2023-03-20T05:14:09.164Z,17.60
2023-03-20T05:16:42.154Z,17.60
2023-03-20T05:19:41.404Z,17.50
2023-03-20T05:22:21.677Z,16.50
2023-03-20T05:25:53.126Z,17.50
2023-03-20T05:29:29.320Z,17.70
2023-03-20T05:36:35.252Z,17.60
2023-03-20T05:40:24.500Z,17.60
2023-03-20T05:51:10.324Z,17.80
2023-03-20T05:54:44.832Z,18.80
2023-03-20T05:58:24.801Z,19.30
2023-03-20T06:02:07.677Z,19.40
2023-03-20T06:05:46.016Z,19.30
2023-03-20T06:08:19.229Z,20.70
2023-03-20T06:10:54.169Z,20.90
2023-03-20T06:13:26.957Z,21.70
2023-03-20T06:16:00.429Z,22.10
2023-03-20T06:18:34.138Z,20.00
2023-03-20T06:21:08.339Z,22.10
2023-03-20T06:24:43.645Z,20.80
2023-03-20T06:28:17.369Z,20.80
2023-03-20T06:31:53.034Z,19.90
2023-03-20T06:41:46.048Z,23.10
2023-03-20T06:45:19.871Z,21.70
2023-03-20T06:48:57.156Z,20.80
2023-03-20T06:52:30.640Z,20.90
2023-03-20T06:56:22.744Z,19.90
2023-03-20T07:06:49.502Z,22.00
2023-03-20T07:09:26.032Z,22.30
2023-03-20T07:12:01.674Z,23.20
2023-03-20T07:21:27.736Z,22.00
2023-03-20T07:25:01.332Z,21.90
2023-03-20T07:38:44.754Z,23.20
2023-03-20T07:41:18.638Z,24.90
2023-03-20T07:43:59.028Z,24.50
2023-03-20T07:46:58.955Z,23.20
2023-03-20T07:49:31.779Z,22.70
2023-03-20T07:52:05.068Z,22.90
2023-03-20T07:55:40.039Z,21.60
2023-03-20T07:59:14.070Z,23.30
2023-03-20T08:06:14.398Z,22.20
2023-03-20T08:11:18.970Z,22.70
2023-03-20T08:13:52.061Z,21.80
2023-03-20T08:16:25.546Z,21.60
2023-03-20T08:19:01.697Z,22.70
2023-03-20T08:21:35.576Z,23.00
2023-03-20T08:25:10.348Z,21.70
2023-03-20T08:39:30.297Z,22.90
2023-03-20T08:42:04.649Z,22.10
2023-03-20T08:44:37.581Z,22.20
2023-03-20T08:47:11.786Z,21.40
2023-03-20T08:49:44.777Z,21.90
2023-03-20T08:52:17.933Z,21.30
2023-03-20T08:54:50.558Z,21.00
2023-03-20T08:57:24.742Z,21.90
2023-03-20T08:59:59.288Z,20.20
2023-03-20T09:02:32.403Z,20.50
2023-03-20T09:05:05.305Z,20.90
2023-03-20T09:07:39.637Z,21.70
2023-03-20T09:10:14.736Z,22.70
2023-03-20T09:12:47.865Z,21.50
2023-03-20T09:15:20.533Z,23.00
2023-03-20T09:17:53.512Z,22.00
2023-03-20T09:20:26.191Z,21.40
2023-03-20T09:23:00.084Z,21.60
2023-03-20T09:25:32.772Z,21.50
2023-03-20T09:28:05.894Z,20.70
2023-03-20T09:33:10.829Z,20.00
2023-03-20T09:35:44.118Z,20.30
2023-03-20T09:38:17.536Z,22.30
2023-03-20T09:40:55.672Z,20.20
2023-03-20T09:43:38.019Z,19.50
2023-03-20T09:46:29.059Z,20.60
2023-03-20T09:49:09.499Z,20.70
2023-03-20T09:51:48.292Z,20.00
2023-03-20T09:54:29.420Z,20.00
2023-03-20T09:57:03.356Z,19.70
2023-03-20T09:59:38.695Z,21.20
2023-03-20T10:02:20.169Z,20.70
2023-03-20T10:04:53.904Z,20.30
2023-03-20T10:07:28.417Z,18.70
2023-03-20T10:10:02.436Z,18.90
2023-03-20T10:12:52.011Z,20.10
2023-03-20T10:15:40.223Z,19.70
2023-03-20T10:18:23.310Z,21.40
2023-03-20T10:21:05.124Z,19.50
2023-03-20T10:23:44.431Z,20.80
2023-03-20T10:26:20.830Z,18.50
2023-03-20T10:28:58.760Z,18.40
2023-03-20T10:31:46.940Z,16.70
2023-03-20T10:34:32.016Z,16.20
2023-03-20T10:37:21.347Z,15.00
2023-03-20T10:40:06.372Z,15.40
2023-03-20T10:42:43.230Z,16.10
2023-03-20T10:45:29.480Z,16.20
2023-03-20T10:48:06.671Z,16.70
2023-03-20T10:50:45.926Z,16.00
2023-03-20T10:53:26.937Z,14.50
2023-03-20T10:56:05.386Z,15.00
2023-03-20T10:58:42.180Z,14.80
2023-03-20T11:01:14.623Z,15.10
2023-03-20T11:03:47.905Z,15.60
2023-03-20T11:06:25.467Z,15.60
2023-03-20T11:08:58.659Z,17.10
2023-03-20T11:11:36.568Z,16.60
2023-03-20T11:14:21.722Z,17.20
2023-03-20T11:16:56.284Z,16.60
2023-03-20T11:19:28.888Z,16.10
2023-03-20T11:22:08.987Z,16.00
2023-03-20T11:24:46.815Z,16.20
2023-03-20T11:27:22.476Z,17.30
2023-03-20T11:29:57.219Z,18.00
2023-03-20T11:32:35.436Z,15.70
2023-03-20T11:35:20.816Z,17.00
2023-03-20T11:37:55.447Z,16.90
2023-03-20T11:40:32.681Z,18.20
2023-03-20T11:43:14.557Z,20.80
2023-03-20T11:45:49.464Z,21.00
2023-03-20T11:48:25.220Z,23.50
2023-03-20T11:51:06.719Z,23.30
2023-03-20T11:53:41.716Z,24.10
2023-03-20T11:56:23.951Z,21.90
2023-03-20T11:59:02.618Z,21.80
2023-03-20T12:01:45.333Z,24.30
2023-03-20T12:04:21.593Z,25.40
2023-03-20T12:06:59.043Z,23.80
2023-03-20T12:09:53.335Z,24.70
2023-03-20T12:12:37.013Z,24.00
2023-03-20T12:15:18.883Z,27.10
2023-03-20T12:17:58.607Z,26.50
2023-03-20T12:20:38.623Z,26.40
2023-03-20T12:23:16.523Z,24.70
2023-03-20T12:25:55.933Z,25.70
2023-03-20T12:28:34.870Z,25.00
2023-03-20T12:31:19.304Z,26.30
2023-03-20T12:33:56.572Z,27.30
2023-03-20T12:36:35.706Z,28.60
2023-03-20T12:39:14.663Z,28.50
2023-03-20T12:42:01.226Z,28.20
2023-03-20T12:44:41.093Z,30.20
2023-03-20T12:47:41.128Z,29.50
2023-03-20T12:50:26.064Z,28.30
2023-03-20T12:53:10.221Z,30.60
2023-03-20T12:58:27.594Z,28.80
2023-03-20T13:01:05.656Z,26.90
2023-03-20T13:04:05.262Z,28.90
2023-03-20T13:06:52.140Z,29.50
2023-03-20T13:09:57.694Z,30.10
2023-03-20T13:12:39.996Z,31.10
2023-03-20T13:15:24.467Z,41.00
2023-03-20T13:18:03.382Z,31.10
2023-03-20T13:20:42.862Z,27.20
2023-03-20T13:23:25.404Z,26.40
2023-03-20T13:26:25.182Z,25.60
2023-03-20T13:29:05.804Z,26.20
2023-03-20T13:31:55.365Z,26.40
2023-03-20T13:34:38.232Z,25.90
2023-03-20T13:37:23.989Z,24.40
2023-03-20T13:40:07.088Z,24.70
2023-03-20T13:42:44.572Z,24.80
2023-03-20T13:45:35.445Z,25.10
2023-03-20T13:48:27.329Z,24.80
2023-03-20T13:51:10.033Z,25.30
2023-03-20T13:53:55.799Z,24.50
2023-03-20T13:56:37.764Z,25.30
2023-03-20T13:59:31.624Z,22.50
2023-03-20T14:02:18.272Z,23.00
2023-03-20T14:04:54.801Z,24.40
2023-03-20T14:07:36.813Z,24.30
2023-03-20T14:10:37.154Z,23.50
2023-03-20T14:13:16.022Z,23.80
2023-03-20T14:15:58.172Z,24.50
2023-03-20T14:18:33.293Z,21.80
2023-03-20T14:21:14.262Z,20.90
2023-03-20T14:23:50.945Z,22.00
2023-03-20T14:26:29.222Z,22.20
2023-03-20T14:29:21.091Z,22.70
2023-03-20T14:31:54.411Z,24.40
2023-03-20T14:34:27.080Z,24.80
2023-03-20T14:37:04.154Z,24.80
2023-03-20T14:39:46.220Z,25.60
2023-03-20T14:42:43.052Z,25.00
2023-03-20T14:45:43.906Z,22.70
2023-03-20T14:48:33.615Z,23.20
2023-03-20T14:51:24.541Z,24.10
2023-03-20T14:54:19.950Z,22.90
2023-03-20T14:56:54.582Z,25.50
2023-03-20T14:59:33.442Z,24.30
2023-03-20T15:02:07.820Z,25.00
2023-03-20T15:04:43.949Z,26.30
2023-03-20T15:07:24.640Z,25.70
2023-03-20T15:10:01.457Z,24.70
2023-03-20T15:12:36.782Z,25.50
2023-03-20T15:15:24.751Z,24.50
2023-03-20T15:18:05.155Z,25.50
2023-03-20T15:20:40.109Z,25.80
2023-03-20T15:23:14.314Z,27.40
2023-03-20T15:25:48.696Z,24.10
2023-03-20T15:28:25.110Z,26.10
2023-03-20T15:31:04.158Z,25.90
2023-03-20T15:33:42.842Z,26.40
2023-03-20T15:36:20.778Z,26.10
2023-03-20T15:39:04.472Z,25.90
2023-03-20T15:41:39.485Z,23.10
2023-03-20T15:44:24.214Z,25.20
2023-03-20T15:47:03.770Z,24.40
2023-03-20T15:49:37.258Z,23.70
2023-03-20T15:54:46.493Z,24.70
2023-03-20T15:57:28.580Z,24.10
2023-03-20T16:00:02.872Z,24.00
2023-03-20T16:02:39.624Z,24.00
2023-03-20T16:05:17.589Z,22.10
2023-03-20T16:07:50.829Z,21.80
2023-03-20T16:10:29.744Z,24.40
2023-03-20T16:13:03.703Z,22.20
2023-03-20T16:15:37.024Z,27.50
2023-03-20T16:18:13.485Z,24.30
2023-03-20T16:20:53.713Z,26.80
2023-03-20T16:23:36.497Z,23.40
2023-03-20T16:26:13.353Z,23.30
2023-03-20T16:28:49.507Z,28.50
2023-03-20T16:31:27.832Z,22.30
2023-03-20T16:34:06.478Z,32.30
2023-03-20T16:36:41.143Z,25.60
2023-03-20T16:39:22.003Z,28.40
2023-03-20T16:42:04.500Z,27.30
2023-03-20T16:44:39.956Z,33.00
2023-03-20T16:47:24.182Z,43.50
2023-03-20T16:50:19.166Z,43.00
2023-03-20T16:52:57.858Z,40.90
2023-03-20T16:55:32.671Z,37.70
2023-03-20T16:58:09.046Z,30.50
2023-03-20T17:00:51.245Z,26.50
2023-03-20T17:03:31.464Z,25.30
2023-03-20T17:06:11.352Z,23.50
2023-03-20T17:08:48.477Z,23.70
2023-03-20T17:11:36.039Z,24.10
2023-03-20T17:14:09.213Z,23.30
2023-03-20T17:16:42.321Z,24.20
2023-03-20T17:19:19.075Z,24.30
2023-03-20T17:21:52.196Z,25.80
2023-03-20T17:24:24.894Z,25.80
2023-03-20T17:27:00.429Z,27.30
2023-03-20T17:29:34.118Z,26.00
2023-03-20T17:32:13.635Z,25.60
2023-03-20T17:34:47.371Z,25.60
2023-03-20T17:37:29.690Z,25.50
2023-03-20T17:40:08.390Z,25.00
2023-03-20T17:42:44.692Z,27.00
2023-03-20T17:45:20.833Z,27.10
2023-03-20T17:47:54.690Z,27.00
2023-03-20T17:50:28.039Z,26.60
2023-03-20T17:53:02.331Z,25.70
2023-03-20T17:55:36.901Z,24.00
2023-03-20T17:58:15.104Z,25.80
2023-03-20T18:00:48.329Z,26.60
2023-03-20T18:03:21.850Z,28.10
2023-03-20T18:05:55.114Z,25.20
2023-03-20T18:08:27.960Z,27.50
2023-03-20T18:11:01.415Z,27.20
2023-03-20T18:16:08.868Z,26.30
2023-03-20T18:18:41.802Z,26.90
2023-03-20T18:21:17.716Z,28.60
2023-03-20T18:23:51.092Z,29.10
2023-03-20T18:26:26.282Z,32.10
2023-03-20T18:29:00.180Z,35.40
2023-03-20T18:31:33.886Z,37.50
2023-03-20T18:34:09.413Z,38.20
2023-03-20T18:36:44.183Z,41.50
2023-03-20T18:39:23.653Z,51.50
2023-03-20T18:41:59.901Z,57.40
2023-03-20T18:44:34.273Z,55.40
2023-03-20T18:47:12.759Z,53.10
2023-03-20T18:49:50.697Z,69.30
2023-03-20T18:52:26.942Z,97.10
2023-03-20T18:55:03.576Z,49.80
2023-03-20T18:57:43.302Z,43.80
2023-03-20T19:00:27.539Z,45.50
2023-03-20T19:03:07.042Z,46.40
2023-03-20T19:05:43.888Z,54.40
2023-03-20T19:08:23.758Z,52.30
2023-03-20T19:11:01.818Z,48.90
2023-03-20T19:13:37.314Z,47.30
2023-03-20T19:16:24.995Z,46.80
2023-03-20T19:19:01.976Z,45.30
2023-03-20T19:21:37.071Z,46.60
2023-03-20T19:24:12.814Z,48.70
2023-03-20T19:26:47.716Z,46.30
2023-03-20T19:29:21.697Z,46.60
2023-03-20T19:31:55.177Z,48.20
2023-03-20T19:35:10.807Z,49.50
2023-03-20T19:37:22.142Z,49.40
2023-03-20T19:39:56.017Z,48.90
2023-03-20T19:42:53.044Z,47.50
2023-03-20T19:45:24.002Z,46.10
2023-03-20T19:47:57.439Z,44.90
2023-03-20T19:50:35.452Z,48.20
2023-03-20T19:53:10.550Z,53.20
2023-03-20T19:55:43.887Z,53.70
2023-03-20T19:58:17.386Z,49.60
2023-03-20T20:03:32.918Z,44.90
2023-03-20T20:06:06.381Z,45.80
2023-03-20T20:08:47.915Z,48.30
2023-03-20T20:11:22.984Z,49.60
2023-03-20T20:14:14.476Z,49.70
2023-03-20T20:16:49.392Z,53.60
2023-03-20T20:19:22.396Z,57.80
2023-03-20T20:22:20.108Z,51.90
2023-03-20T20:24:50.734Z,58.90
2023-03-20T20:27:27.565Z,51.40
2023-03-20T20:30:00.839Z,49.00
2023-03-20T20:32:34.215Z,50.40
2023-03-20T20:40:56.668Z,42.60
2023-03-20T20:44:06.759Z,44.70
2023-03-20T20:46:25.167Z,40.50
2023-03-20T20:49:13.021Z,41.20
2023-03-20T20:51:53.022Z,41.20
2023-03-20T20:54:26.531Z,42.10
2023-03-20T20:56:59.335Z,41.40
2023-03-20T20:59:33.061Z,43.30
2023-03-20T21:04:45.520Z,42.10
2023-03-20T21:07:18.328Z,43.80
2023-03-20T21:09:56.563Z,43.80
2023-03-20T21:12:38.244Z,43.90
2023-03-20T21:15:16.284Z,42.80
2023-03-20T21:20:34.270Z,40.40
2023-03-20T21:23:07.335Z,44.10
2023-03-20T21:25:44.651Z,42.20
2023-03-20T21:28:21.990Z,41.40
2023-03-20T21:31:22.748Z,41.80
2023-03-20T21:34:05.440Z,43.30
2023-03-20T21:36:38.559Z,41.50
2023-03-20T21:39:11.241Z,40.60
2023-03-20T21:41:44.760Z,42.20
2023-03-20T21:44:56.199Z,40.10
2023-03-20T21:53:34.938Z,38.00
2023-03-20T22:02:09.565Z,38.10
2023-03-20T22:05:18.825Z,39.90
2023-03-20T22:13:59.692Z,39.40
2023-03-20T22:17:17.554Z,37.70
2023-03-20T22:22:34.485Z,42.30
2023-03-20T22:39:50.957Z,32.80
2023-03-20T22:45:01.279Z,29.90
2023-03-20T22:47:35.941Z,33.00
2023-03-20T22:50:09.766Z,31.50
2023-03-20T22:52:49.265Z,32.60
2023-03-20T22:55:25.445Z,30.80
2023-03-20T22:58:06.701Z,31.60
2023-03-20T23:00:41.694Z,32.70
2023-03-20T23:03:22.685Z,32.40
2023-03-20T23:06:10.791Z,32.30
2023-03-20T23:08:50.720Z,30.90
2023-03-20T23:11:29.226Z,30.80
2023-03-20T23:14:03.672Z,30.40
2023-03-20T23:16:37.286Z,29.70
2023-03-20T23:19:09.893Z,29.20
2023-03-20T23:21:43.301Z,29.10
2023-03-20T23:24:17.211Z,29.30
2023-03-20T23:26:50.713Z,29.70
2023-03-20T23:29:23.674Z,29.20
2023-03-20T23:31:56.677Z,28.70
2023-03-20T23:34:29.307Z,27.80
2023-03-20T23:37:02.941Z,27.50
2023-03-20T23:42:20.242Z,26.60
2023-03-20T23:45:02.213Z,26.60
2023-03-20T23:47:44.761Z,27.20
2023-03-20T23:50:27.407Z,26.10
2023-03-20T23:53:17.111Z,26.80
2023-03-20T23:55:54.734Z,27.80
2023-03-20T23:58:29.573Z,28.80
